createdAt,value
2022-08-31T00:02:23.771Z,45.07
2022-08-31T00:05:25.524Z,46.15
2022-08-31T00:08:27.739Z,46.86
2022-08-31T00:11:31.072Z,46.44
2022-08-31T00:14:33.111Z,46.82
2022-08-31T00:17:34.541Z,46.06
2022-08-31T00:20:36.287Z,45.91
2022-08-31T00:23:37.751Z,46.25
2022-08-31T00:26:40.262Z,46.75
2022-08-31T00:29:42.100Z,46.98
2022-08-31T00:32:43.550Z,47.14
2022-08-31T00:35:45.422Z,46.96
2022-08-31T00:38:48.288Z,48.33
2022-08-31T00:41:50.094Z,49.33
2022-08-31T00:44:52.046Z,52.00
2022-08-31T00:47:54.562Z,54.21
2022-08-31T00:50:57.512Z,55.49
2022-08-31T00:54:00.131Z,57.48
2022-08-31T00:57:02.676Z,58.47
2022-08-31T01:00:09.857Z,59.25
2022-08-31T01:03:11.838Z,60.69
2022-08-31T01:06:16.012Z,62.46
2022-08-31T01:09:21.008Z,64.40
2022-08-31T01:12:23.601Z,65.91
2022-08-31T01:15:27.736Z,69.16
2022-08-31T01:18:30.632Z,71.87
2022-08-31T01:21:39.645Z,73.28
2022-08-31T01:24:46.400Z,73.09
2022-08-31T01:27:48.020Z,73.66
2022-08-31T01:31:04.076Z,75.12
2022-08-31T01:34:06.822Z,78.92
2022-08-31T01:37:08.479Z,79.44
2022-08-31T01:40:11.242Z,81.00
2022-08-31T01:43:12.925Z,85.03
2022-08-31T01:46:15.902Z,85.33
2022-08-31T01:49:19.305Z,87.31
2022-08-31T01:52:21.008Z,86.10
2022-08-31T01:55:24.696Z,87.71
2022-08-31T01:58:26.224Z,88.27
2022-08-31T02:01:47.200Z,88.96
2022-08-31T02:04:50.865Z,89.66
2022-08-31T02:07:56.037Z,88.51
2022-08-31T02:10:57.456Z,90.25
2022-08-31T02:13:59.103Z,89.54
2022-08-31T02:17:00.597Z,90.86
2022-08-31T02:20:02.240Z,92.35
2022-08-31T02:23:03.765Z,90.03
2022-08-31T02:26:05.804Z,88.33
2022-08-31T02:29:07.648Z,90.72
2022-08-31T02:32:09.355Z,90.80
2022-08-31T02:35:21.302Z,91.87
2022-08-31T02:38:23.041Z,90.79
2022-08-31T02:41:25.375Z,92.33
2022-08-31T02:44:27.188Z,92.40
2022-08-31T02:47:30.949Z,93.01
2022-08-31T02:50:53.648Z,92.04
2022-08-31T02:53:55.269Z,91.89
2022-08-31T02:56:56.737Z,92.37
2022-08-31T02:59:58.344Z,91.40
2022-08-31T03:03:04.864Z,92.78
2022-08-31T03:06:06.603Z,92.19
2022-08-31T03:09:08.037Z,93.72
2022-08-31T03:12:09.494Z,94.92
2022-08-31T03:15:11.593Z,95.60
2022-08-31T03:18:13.273Z,96.49
2022-08-31T03:21:15.774Z,96.56
2022-08-31T03:24:21.164Z,96.89
2022-08-31T03:27:24.669Z,96.98
2022-08-31T03:30:27.614Z,97.36
2022-08-31T03:33:40.821Z,98.07
2022-08-31T03:36:42.360Z,98.73
2022-08-31T03:39:43.783Z,99.21
2022-08-31T03:42:46.121Z,99.50
2022-08-31T03:45:49.467Z,100.00
2022-08-31T03:48:51.423Z,100.00
2022-08-31T03:51:53.183Z,100.00
2022-08-31T03:54:56.477Z,100.00
2022-08-31T03:57:58.385Z,100.00
2022-08-31T04:01:00.033Z,100.00
2022-08-31T04:04:24.326Z,100.00
2022-08-31T04:07:44.398Z,100.00
2022-08-31T04:11:13.672Z,100.00
2022-08-31T04:14:33.956Z,100.00
2022-08-31T04:17:57.961Z,99.37
2022-08-31T04:21:25.246Z,99.41
2022-08-31T04:24:26.742Z,98.42
2022-08-31T04:27:28.188Z,97.26
2022-08-31T04:30:29.629Z,97.56
2022-08-31T04:33:31.081Z,97.19
2022-08-31T04:36:32.773Z,97.18
2022-08-31T04:39:34.588Z,96.99
2022-08-31T04:42:50.841Z,98.01
2022-08-31T04:45:55.956Z,97.37
2022-08-31T04:48:58.376Z,96.82
2022-08-31T04:51:59.838Z,96.67
2022-08-31T04:55:05.704Z,96.37
2022-08-31T04:58:07.335Z,94.05
2022-08-31T05:01:11.895Z,94.79
2022-08-31T05:04:45.757Z,94.65
2022-08-31T05:07:47.271Z,94.34
2022-08-31T05:10:48.764Z,94.08
2022-08-31T05:13:50.494Z,94.27
2022-08-31T05:16:52.552Z,92.28
2022-08-31T05:19:56.176Z,92.23
2022-08-31T05:22:58.353Z,93.30
2022-08-31T05:26:00.200Z,92.18
2022-08-31T05:29:04.389Z,91.25
2022-08-31T05:32:08.708Z,90.10
2022-08-31T05:35:10.184Z,89.56
2022-08-31T05:38:12.763Z,89.87
2022-08-31T05:41:14.773Z,89.96
2022-08-31T05:44:17.594Z,90.29
2022-08-31T05:47:19.234Z,90.36
2022-08-31T05:50:23.790Z,93.12
2022-08-31T05:53:27.078Z,93.12
2022-08-31T05:56:28.640Z,92.24
2022-08-31T05:59:32.938Z,94.03
2022-08-31T06:02:36.967Z,94.37
2022-08-31T06:05:38.483Z,95.00
2022-08-31T06:08:41.015Z,97.42
2022-08-31T06:11:42.580Z,97.49
2022-08-31T06:14:53.249Z,96.59
2022-08-31T06:17:55.289Z,97.41
2022-08-31T06:21:09.047Z,96.30
2022-08-31T06:24:12.030Z,98.26
2022-08-31T06:27:14.302Z,95.34
2022-08-31T06:30:22.001Z,97.76
2022-08-31T06:33:25.736Z,97.02
2022-08-31T06:36:38.350Z,95.69
2022-08-31T06:40:12.126Z,92.18
2022-08-31T06:43:31.980Z,92.21
2022-08-31T06:46:39.201Z,91.81
2022-08-31T06:49:53.698Z,91.05
2022-08-31T06:52:57.062Z,90.88
2022-08-31T06:56:21.062Z,90.55
2022-08-31T06:59:41.346Z,89.74
2022-08-31T07:03:21.226Z,89.29
2022-08-31T07:06:26.046Z,88.46
2022-08-31T07:09:27.662Z,89.78
2022-08-31T07:12:29.088Z,91.91
2022-08-31T07:15:30.566Z,90.69
2022-08-31T07:18:32.527Z,90.14
2022-08-31T07:21:39.070Z,88.73
2022-08-31T07:24:40.644Z,84.72
2022-08-31T07:27:42.144Z,84.76
2022-08-31T07:30:44.667Z,85.23
2022-08-31T07:33:50.752Z,86.12
2022-08-31T07:37:12.621Z,83.89
2022-08-31T07:40:33.019Z,83.99
2022-08-31T07:43:36.790Z,85.66
2022-08-31T07:46:40.637Z,88.28
2022-08-31T07:49:47.797Z,88.92
2022-08-31T07:53:06.968Z,91.08
2022-08-31T07:56:25.509Z,93.45
2022-08-31T07:59:41.232Z,97.58
2022-08-31T08:02:50.761Z,100.00
2022-08-31T08:05:55.879Z,100.00
2022-08-31T08:09:24.824Z,100.00
2022-08-31T08:12:37.849Z,100.00
2022-08-31T08:15:46.413Z,100.00
2022-08-31T08:19:08.169Z,100.00
2022-08-31T08:22:09.818Z,100.00
2022-08-31T08:25:34.695Z,100.00
2022-08-31T08:29:00.784Z,100.00
2022-08-31T08:32:02.552Z,100.00
2022-08-31T08:35:04.640Z,100.00
2022-08-31T08:38:07.981Z,100.00
2022-08-31T08:41:15.744Z,100.00
2022-08-31T08:44:18.424Z,100.00
2022-08-31T08:47:39.209Z,100.00
2022-08-31T08:50:43.977Z,100.00
2022-08-31T08:54:02.443Z,100.00
2022-08-31T08:57:21.069Z,100.00
2022-08-31T09:00:26.693Z,100.00
2022-08-31T09:03:48.934Z,100.00
2022-08-31T09:07:22.829Z,100.00
2022-08-31T09:10:35.622Z,100.00
2022-08-31T09:14:19.174Z,100.00
2022-08-31T09:18:00.220Z,100.00
2022-08-31T09:21:21.421Z,100.00
2022-08-31T09:24:27.520Z,100.00
2022-08-31T09:27:57.290Z,100.00
2022-08-31T09:30:58.866Z,100.00
2022-08-31T09:34:02.024Z,100.00
2022-08-31T09:37:16.209Z,100.00
2022-08-31T09:40:23.643Z,100.00
2022-08-31T09:43:34.966Z,100.00
2022-08-31T09:46:36.656Z,100.00
2022-08-31T09:49:39.339Z,100.00
2022-08-31T09:53:00.272Z,100.00
2022-08-31T09:56:20.466Z,100.00
2022-08-31T09:59:37.524Z,100.00
2022-08-31T10:02:40.079Z,100.00
2022-08-31T10:05:43.471Z,100.00
2022-08-31T10:08:57.857Z,100.00
2022-08-31T10:12:04.223Z,100.00
2022-08-31T10:15:16.304Z,100.00
2022-08-31T10:18:32.053Z,100.00
2022-08-31T10:21:51.994Z,100.00
2022-08-31T10:25:12.884Z,100.00
2022-08-31T10:28:31.613Z,100.00
2022-08-31T10:31:42.478Z,100.00
2022-08-31T10:35:05.598Z,100.00
2022-08-31T10:38:24.052Z,100.00
2022-08-31T10:41:30.770Z,100.00
2022-08-31T10:44:56.963Z,100.00
2022-08-31T10:47:59.380Z,100.00
2022-08-31T10:51:22.885Z,100.00
2022-08-31T10:54:54.506Z,100.00
2022-08-31T10:58:14.236Z,100.00
2022-08-31T11:01:22.790Z,100.00
2022-08-31T11:05:11.655Z,100.00
2022-08-31T11:08:25.210Z,100.00
2022-08-31T11:11:51.869Z,100.00
2022-08-31T11:15:17.691Z,100.00
2022-08-31T11:18:53.462Z,100.00
2022-08-31T11:22:19.008Z,100.00
2022-08-31T11:25:37.637Z,100.00
2022-08-31T11:29:09.983Z,100.00
2022-08-31T11:32:21.469Z,100.00
2022-08-31T11:36:08.632Z,100.00
2022-08-31T11:39:09.981Z,100.00
2022-08-31T11:42:26.725Z,100.00
2022-08-31T11:45:32.905Z,100.00
2022-08-31T11:48:57.907Z,100.00
2022-08-31T11:52:00.656Z,100.00
2022-08-31T11:55:15.026Z,100.00
2022-08-31T11:58:20.878Z,100.00
2022-08-31T12:01:35.441Z,100.00
2022-08-31T12:04:46.384Z,100.00
2022-08-31T12:07:48.358Z,100.00
2022-08-31T12:11:11.018Z,100.00
2022-08-31T12:14:25.738Z,100.00
2022-08-31T12:18:04.918Z,100.00
2022-08-31T12:21:43.143Z,100.00
2022-08-31T12:25:03.991Z,100.00
2022-08-31T12:28:29.130Z,100.00
2022-08-31T12:31:34.475Z,100.00
2022-08-31T12:34:40.887Z,100.00
2022-08-31T12:37:43.252Z,100.00
2022-08-31T12:40:47.980Z,100.00
2022-08-31T12:43:49.525Z,100.00
2022-08-31T12:47:16.480Z,100.00
2022-08-31T12:50:37.749Z,99.56
2022-08-31T12:53:51.096Z,97.87
2022-08-31T12:57:11.380Z,98.21
2022-08-31T13:00:20.580Z,99.78
2022-08-31T13:03:26.919Z,99.73
2022-08-31T13:06:37.240Z,97.06
2022-08-31T13:09:38.789Z,95.20
2022-08-31T13:12:48.182Z,92.21
2022-08-31T13:15:51.269Z,92.16
2022-08-31T13:19:00.589Z,91.79
2022-08-31T13:22:16.903Z,90.03
2022-08-31T13:25:28.017Z,91.09
2022-08-31T13:28:34.921Z,92.41
2022-08-31T13:31:49.521Z,89.38
2022-08-31T13:34:54.810Z,87.17
2022-08-31T13:38:04.883Z,85.54
2022-08-31T13:41:17.049Z,84.86
2022-08-31T13:44:22.266Z,82.26
2022-08-31T13:47:27.437Z,81.04
2022-08-31T13:50:53.447Z,81.21
2022-08-31T13:53:54.914Z,80.90
2022-08-31T13:57:08.084Z,81.74
2022-08-31T14:00:43.428Z,80.04
2022-08-31T14:03:59.382Z,82.13
2022-08-31T14:07:01.545Z,83.52
2022-08-31T14:10:14.064Z,82.12
2022-08-31T14:13:27.754Z,82.02
2022-08-31T14:16:34.955Z,81.03
2022-08-31T14:19:39.791Z,80.32
2022-08-31T14:22:45.563Z,80.56
2022-08-31T14:25:47.064Z,76.60
2022-08-31T14:28:53.164Z,76.55
2022-08-31T14:31:54.888Z,78.69
2022-08-31T14:34:57.802Z,74.76
2022-08-31T14:37:59.320Z,68.99
2022-08-31T14:41:00.792Z,71.34
2022-08-31T14:44:09.327Z,72.82
2022-08-31T14:47:12.109Z,73.71
2022-08-31T14:50:18.107Z,75.21
2022-08-31T14:53:20.931Z,74.85
2022-08-31T14:56:26.951Z,73.79
2022-08-31T14:59:29.292Z,70.96
2022-08-31T15:02:34.342Z,68.87
2022-08-31T15:05:39.146Z,68.12
2022-08-31T15:08:41.386Z,68.40
2022-08-31T15:11:45.073Z,67.79
2022-08-31T15:14:47.060Z,67.24
2022-08-31T15:17:51.392Z,64.87
2022-08-31T15:20:53.748Z,65.10
2022-08-31T15:23:55.245Z,66.85
2022-08-31T15:26:57.750Z,68.16
2022-08-31T15:30:07.968Z,68.03
2022-08-31T15:33:09.993Z,68.02
2022-08-31T15:36:15.381Z,68.49
2022-08-31T15:39:16.800Z,68.22
2022-08-31T15:42:22.720Z,67.25
2022-08-31T15:45:27.867Z,66.61
2022-08-31T15:48:41.741Z,65.37
2022-08-31T15:51:49.028Z,67.24
2022-08-31T15:54:50.633Z,68.14
2022-08-31T15:57:54.582Z,68.80
2022-08-31T16:00:56.198Z,69.25
2022-08-31T16:03:58.345Z,68.22
2022-08-31T16:07:00.852Z,66.57
2022-08-31T16:10:11.257Z,66.60
2022-08-31T16:13:15.716Z,64.44
2022-08-31T16:16:18.276Z,63.40
2022-08-31T16:19:34.490Z,62.68
2022-08-31T16:22:37.209Z,62.93
2022-08-31T16:25:48.126Z,61.25
2022-08-31T16:28:50.335Z,61.31
2022-08-31T16:31:52.061Z,62.73
2022-08-31T16:34:54.855Z,63.81
2022-08-31T16:37:56.356Z,64.72
2022-08-31T16:41:04.792Z,63.50
2022-08-31T16:44:19.687Z,63.40
2022-08-31T16:47:21.807Z,65.51
2022-08-31T16:50:23.296Z,63.25
2022-08-31T16:53:25.786Z,63.78
2022-08-31T16:56:29.480Z,64.13
2022-08-31T16:59:31.012Z,64.17
2022-08-31T17:02:33.114Z,64.15
2022-08-31T17:05:34.717Z,66.17
2022-08-31T17:08:41.275Z,67.78
2022-08-31T17:11:49.186Z,70.62
2022-08-31T17:14:52.509Z,70.85
2022-08-31T17:17:55.114Z,70.62
2022-08-31T17:20:57.395Z,71.69
2022-08-31T17:24:03.276Z,70.64
2022-08-31T17:27:07.413Z,71.61
2022-08-31T17:30:09.798Z,72.97
2022-08-31T17:33:15.873Z,72.22
2022-08-31T17:36:19.961Z,72.46
2022-08-31T17:39:23.113Z,73.23
2022-08-31T17:42:26.927Z,73.54
2022-08-31T17:45:28.767Z,72.03
2022-08-31T17:48:30.307Z,73.51
2022-08-31T17:51:33.830Z,75.19
2022-08-31T17:54:40.119Z,76.06
2022-08-31T17:57:42.012Z,76.81
2022-08-31T18:00:43.870Z,77.04
2022-08-31T18:03:45.474Z,77.94
2022-08-31T18:06:47.461Z,78.27
2022-08-31T18:09:48.980Z,78.46
2022-08-31T18:12:50.791Z,78.38
2022-08-31T18:15:52.527Z,79.14
2022-08-31T18:18:54.049Z,79.50
2022-08-31T18:21:56.482Z,79.71
2022-08-31T18:24:58.187Z,79.76
2022-08-31T18:28:03.282Z,79.22
2022-08-31T18:31:07.562Z,80.10
2022-08-31T18:34:12.035Z,79.07
2022-08-31T18:37:15.021Z,79.35
2022-08-31T18:40:34.885Z,79.21
2022-08-31T18:43:55.115Z,80.01
2022-08-31T18:47:02.163Z,79.52
2022-08-31T18:50:04.637Z,81.22
2022-08-31T18:53:07.465Z,81.85
2022-08-31T18:56:12.225Z,82.36
2022-08-31T18:59:15.650Z,81.88
2022-08-31T19:02:22.989Z,82.05
2022-08-31T19:05:24.880Z,83.06
2022-08-31T19:08:26.710Z,83.10
2022-08-31T19:11:28.411Z,82.55
2022-08-31T19:14:34.028Z,82.63
2022-08-31T19:17:36.464Z,81.93
2022-08-31T19:20:37.966Z,81.55
2022-08-31T19:23:39.468Z,80.54
2022-08-31T19:26:48.294Z,82.25
2022-08-31T19:29:55.630Z,84.16
2022-08-31T19:32:57.142Z,84.74
2022-08-31T19:36:03.498Z,85.54
2022-08-31T19:39:10.678Z,85.34
2022-08-31T19:42:13.306Z,86.41
2022-08-31T19:45:40.693Z,87.57
2022-08-31T19:48:44.387Z,84.28
2022-08-31T19:51:52.725Z,86.55
2022-08-31T19:54:54.215Z,85.63
2022-08-31T19:57:55.713Z,84.11
2022-08-31T20:01:01.288Z,84.18
2022-08-31T20:04:15.762Z,82.65
2022-08-31T20:07:20.136Z,84.13
2022-08-31T20:10:21.633Z,83.49
2022-08-31T20:13:25.198Z,76.29
2022-08-31T20:16:33.389Z,72.20
2022-08-31T20:19:38.477Z,70.47
2022-08-31T20:22:40.390Z,70.07
2022-08-31T20:25:46.959Z,69.65
2022-08-31T20:28:50.517Z,69.94
2022-08-31T20:31:52.595Z,67.88
2022-08-31T20:34:55.771Z,67.82
2022-08-31T20:37:57.321Z,67.17
2022-08-31T20:41:03.056Z,67.23
2022-08-31T20:44:10.480Z,67.82
2022-08-31T20:47:30.535Z,68.86
2022-08-31T20:50:32.139Z,63.64
2022-08-31T20:53:42.610Z,64.50
2022-08-31T20:56:45.526Z,64.75
2022-08-31T20:59:47.281Z,63.44
2022-08-31T21:02:49.739Z,62.21
2022-08-31T21:05:52.039Z,64.14
2022-08-31T21:08:56.768Z,64.07
2022-08-31T21:11:59.065Z,64.67
2022-08-31T21:15:00.464Z,65.09
2022-08-31T21:18:01.957Z,61.98
2022-08-31T21:21:09.826Z,61.58
2022-08-31T21:24:13.707Z,61.35
2022-08-31T21:27:17.695Z,61.13
2022-08-31T21:30:19.124Z,61.72
2022-08-31T21:33:21.061Z,61.29
2022-08-31T21:36:23.581Z,61.67
2022-08-31T21:39:25.065Z,61.78
2022-08-31T21:42:26.997Z,61.37
2022-08-31T21:45:28.761Z,61.37
2022-08-31T21:48:32.781Z,62.03
2022-08-31T21:51:37.304Z,62.10
2022-08-31T21:54:40.832Z,62.24
2022-08-31T21:57:43.235Z,61.96
2022-08-31T22:00:45.114Z,62.71
2022-08-31T22:03:48.957Z,62.72
2022-08-31T22:06:50.441Z,62.90
2022-08-31T22:09:51.853Z,63.22
2022-08-31T22:12:53.273Z,63.50
2022-08-31T22:15:55.906Z,63.90
2022-08-31T22:19:01.423Z,64.34
2022-08-31T22:22:08.958Z,64.33
2022-08-31T22:25:13.284Z,64.57
2022-08-31T22:28:14.876Z,63.87
2022-08-31T22:31:19.677Z,64.38
2022-08-31T22:34:22.281Z,64.94
2022-08-31T22:37:23.715Z,64.64
2022-08-31T22:40:25.236Z,65.22
2022-08-31T22:43:26.674Z,65.76
2022-08-31T22:46:28.332Z,65.32
2022-08-31T22:49:30.125Z,66.07
2022-08-31T22:52:32.426Z,66.04
2022-08-31T22:55:38.279Z,66.34
2022-08-31T22:58:40.805Z,66.43
2022-08-31T23:01:52.922Z,66.71
2022-08-31T23:04:54.516Z,66.55
2022-08-31T23:07:55.926Z,67.17
2022-08-31T23:10:57.320Z,67.11
2022-08-31T23:14:01.902Z,67.30
2022-08-31T23:17:09.023Z,67.01
2022-08-31T23:20:16.057Z,67.40
2022-08-31T23:23:17.489Z,68.02
2022-08-31T23:26:20.998Z,68.22
2022-08-31T23:29:22.400Z,67.95
2022-08-31T23:32:27.763Z,68.09
2022-08-31T23:35:29.223Z,68.13
2022-08-31T23:38:34.990Z,68.62
2022-08-31T23:41:38.825Z,69.33
2022-08-31T23:44:43.400Z,69.40
2022-08-31T23:47:44.951Z,69.58
2022-08-31T23:50:46.369Z,69.54
2022-08-31T23:54:00.192Z,70.37
2022-08-31T23:57:02.132Z,70.01
